sensor_id;sensor_type;location;lat;lon;timestamp;P1;durP1;ratioP1;P2;durP2;ratioP2
54881;SDS011;40775;51.448;4.742;2023-12-20T00:02:17;3.10;;;0.90;;
54881;SDS011;40775;51.448;4.742;2023-12-20T00:04:44;2.78;;;1.13;;
54881;SDS011;40775;51.448;4.742;2023-12-20T00:07:11;2.35;;;0.85;;
54881;SDS011;40775;51.448;4.742;2023-12-20T00:09:39;3.50;;;0.93;;
54881;SDS011;40775;51.448;4.742;2023-12-20T00:12:06;3.92;;;1.25;;
54881;SDS011;40775;51.448;4.742;2023-12-20T00:14:33;2.05;;;0.98;;
54881;SDS011;40775;51.448;4.742;2023-12-20T00:17:00;5.53;;;0.95;;
54881;SDS011;40775;51.448;4.742;2023-12-20T00:19:27;2.70;;;1.02;;
54881;SDS011;40775;51.448;4.742;2023-12-20T00:21:54;1.92;;;0.85;;
54881;SDS011;40775;51.448;4.742;2023-12-20T00:24:21;2.10;;;1.02;;
54881;SDS011;40775;51.448;4.742;2023-12-20T00:26:48;3.45;;;1.20;;
54881;SDS011;40775;51.448;4.742;2023-12-20T00:29:15;3.22;;;0.73;;
54881;SDS011;40775;51.448;4.742;2023-12-20T00:31:42;2.08;;;0.80;;
54881;SDS011;40775;51.448;4.742;2023-12-20T00:34:10;2.63;;;1.05;;
54881;SDS011;40775;51.448;4.742;2023-12-20T00:36:37;1.70;;;0.73;;
54881;SDS011;40775;51.448;4.742;2023-12-20T00:39:04;1.52;;;0.57;;
54881;SDS011;40775;51.448;4.742;2023-12-20T00:41:33;1.13;;;0.40;;
54881;SDS011;40775;51.448;4.742;2023-12-20T00:44:00;2.67;;;0.93;;
54881;SDS011;40775;51.448;4.742;2023-12-20T00:46:27;3.80;;;0.98;;
54881;SDS011;40775;51.448;4.742;2023-12-20T00:48:54;5.45;;;0.88;;
54881;SDS011;40775;51.448;4.742;2023-12-20T00:51:21;4.80;;;0.93;;
54881;SDS011;40775;51.448;4.742;2023-12-20T00:53:49;1.08;;;0.50;;
54881;SDS011;40775;51.448;4.742;2023-12-20T00:56:20;3.93;;;0.80;;
54881;SDS011;40775;51.448;4.742;2023-12-20T00:58:47;6.32;;;1.05;;
54881;SDS011;40775;51.448;4.742;2023-12-20T01:01:15;2.67;;;0.70;;
54881;SDS011;40775;51.448;4.742;2023-12-20T01:03:42;3.90;;;0.85;;
54881;SDS011;40775;51.448;4.742;2023-12-20T01:06:09;3.15;;;1.10;;
54881;SDS011;40775;51.448;4.742;2023-12-20T01:08:37;3.15;;;1.02;;
54881;SDS011;40775;51.448;4.742;2023-12-20T01:11:04;2.92;;;1.00;;
54881;SDS011;40775;51.448;4.742;2023-12-20T01:13:32;3.15;;;0.80;;
54881;SDS011;40775;51.448;4.742;2023-12-20T01:15:59;4.72;;;0.50;;
54881;SDS011;40775;51.448;4.742;2023-12-20T01:18:26;1.60;;;0.70;;
54881;SDS011;40775;51.448;4.742;2023-12-20T01:20:54;2.78;;;0.85;;
54881;SDS011;40775;51.448;4.742;2023-12-20T01:23:21;4.13;;;0.85;;
54881;SDS011;40775;51.448;4.742;2023-12-20T01:25:48;2.17;;;0.60;;
54881;SDS011;40775;51.448;4.742;2023-12-20T01:28:15;4.25;;;0.98;;
54881;SDS011;40775;51.448;4.742;2023-12-20T01:30:42;4.03;;;0.80;;
54881;SDS011;40775;51.448;4.742;2023-12-20T01:33:09;4.65;;;1.30;;
54881;SDS011;40775;51.448;4.742;2023-12-20T01:35:37;1.20;;;0.47;;
54881;SDS011;40775;51.448;4.742;2023-12-20T01:38:04;2.13;;;0.70;;
54881;SDS011;40775;51.448;4.742;2023-12-20T01:40:31;5.82;;;0.80;;
54881;SDS011;40775;51.448;4.742;2023-12-20T01:43:01;3.67;;;0.82;;
54881;SDS011;40775;51.448;4.742;2023-12-20T01:45:36;0.88;;;0.43;;
54881;SDS011;40775;51.448;4.742;2023-12-20T01:48:03;1.67;;;0.65;;
54881;SDS011;40775;51.448;4.742;2023-12-20T01:50:31;2.60;;;1.00;;
54881;SDS011;40775;51.448;4.742;2023-12-20T01:53:01;2.75;;;0.85;;
54881;SDS011;40775;51.448;4.742;2023-12-20T01:55:31;1.75;;;0.73;;
54881;SDS011;40775;51.448;4.742;2023-12-20T01:58:01;2.67;;;0.85;;
54881;SDS011;40775;51.448;4.742;2023-12-20T02:00:28;4.43;;;0.73;;
54881;SDS011;40775;51.448;4.742;2023-12-20T02:02:57;1.08;;;0.55;;
54881;SDS011;40775;51.448;4.742;2023-12-20T02:05:29;2.70;;;0.57;;
54881;SDS011;40775;51.448;4.742;2023-12-20T02:07:57;4.93;;;0.80;;
54881;SDS011;40775;51.448;4.742;2023-12-20T02:10:25;3.63;;;0.50;;
54881;SDS011;40775;51.448;4.742;2023-12-20T02:12:52;2.40;;;1.00;;
54881;SDS011;40775;51.448;4.742;2023-12-20T02:15:20;3.88;;;1.00;;
54881;SDS011;40775;51.448;4.742;2023-12-20T02:17:47;1.50;;;0.65;;
54881;SDS011;40775;51.448;4.742;2023-12-20T02:20:15;2.08;;;0.80;;
54881;SDS011;40775;51.448;4.742;2023-12-20T02:22:42;1.45;;;0.63;;
54881;SDS011;40775;51.448;4.742;2023-12-20T02:25:09;2.78;;;0.90;;
54881;SDS011;40775;51.448;4.742;2023-12-20T02:27:36;1.90;;;0.70;;
54881;SDS011;40775;51.448;4.742;2023-12-20T02:30:03;3.20;;;0.88;;
54881;SDS011;40775;51.448;4.742;2023-12-20T02:32:32;1.48;;;0.60;;
54881;SDS011;40775;51.448;4.742;2023-12-20T02:34:59;3.20;;;0.73;;
54881;SDS011;40775;51.448;4.742;2023-12-20T02:37:26;3.05;;;0.80;;
54881;SDS011;40775;51.448;4.742;2023-12-20T02:39:53;1.77;;;0.68;;
54881;SDS011;40775;51.448;4.742;2023-12-20T02:42:20;3.78;;;0.52;;
54881;SDS011;40775;51.448;4.742;2023-12-20T02:44:47;3.50;;;0.80;;
54881;SDS011;40775;51.448;4.742;2023-12-20T02:47:14;3.90;;;1.10;;
54881;SDS011;40775;51.448;4.742;2023-12-20T02:49:41;2.28;;;0.70;;
54881;SDS011;40775;51.448;4.742;2023-12-20T02:52:08;2.35;;;0.65;;
54881;SDS011;40775;51.448;4.742;2023-12-20T02:54:35;3.25;;;1.20;;
54881;SDS011;40775;51.448;4.742;2023-12-20T02:57:02;1.95;;;0.80;;
54881;SDS011;40775;51.448;4.742;2023-12-20T02:59:30;2.53;;;1.00;;
54881;SDS011;40775;51.448;4.742;2023-12-20T03:01:56;1.55;;;0.60;;
54881;SDS011;40775;51.448;4.742;2023-12-20T03:04:24;2.33;;;0.60;;
54881;SDS011;40775;51.448;4.742;2023-12-20T03:06:51;2.50;;;0.82;;
54881;SDS011;40775;51.448;4.742;2023-12-20T03:09:18;2.72;;;0.95;;
54881;SDS011;40775;51.448;4.742;2023-12-20T03:11:45;4.28;;;0.80;;
54881;SDS011;40775;51.448;4.742;2023-12-20T03:14:12;2.67;;;0.85;;
54881;SDS011;40775;51.448;4.742;2023-12-20T03:16:39;1.73;;;0.82;;
54881;SDS011;40775;51.448;4.742;2023-12-20T03:19:06;2.55;;;0.90;;
54881;SDS011;40775;51.448;4.742;2023-12-20T03:21:33;3.72;;;1.10;;
54881;SDS011;40775;51.448;4.742;2023-12-20T03:24:00;2.60;;;1.02;;
54881;SDS011;40775;51.448;4.742;2023-12-20T03:26:27;5.95;;;1.15;;
54881;SDS011;40775;51.448;4.742;2023-12-20T03:28:54;4.63;;;1.13;;
54881;SDS011;40775;51.448;4.742;2023-12-20T03:31:21;2.10;;;0.90;;
54881;SDS011;40775;51.448;4.742;2023-12-20T03:33:48;2.35;;;0.88;;
54881;SDS011;40775;51.448;4.742;2023-12-20T03:36:17;3.80;;;0.90;;
54881;SDS011;40775;51.448;4.742;2023-12-20T03:38:44;3.75;;;1.20;;
54881;SDS011;40775;51.448;4.742;2023-12-20T03:41:11;1.65;;;0.63;;
54881;SDS011;40775;51.448;4.742;2023-12-20T03:43:38;3.22;;;1.17;;
54881;SDS011;40775;51.448;4.742;2023-12-20T03:46:05;7.20;;;0.88;;
54881;SDS011;40775;51.448;4.742;2023-12-20T03:48:35;8.02;;;1.13;;
54881;SDS011;40775;51.448;4.742;2023-12-20T03:51:02;4.57;;;1.10;;
54881;SDS011;40775;51.448;4.742;2023-12-20T03:53:29;3.28;;;0.98;;
54881;SDS011;40775;51.448;4.742;2023-12-20T03:55:56;6.40;;;1.60;;
54881;SDS011;40775;51.448;4.742;2023-12-20T03:58:23;4.15;;;1.30;;
54881;SDS011;40775;51.448;4.742;2023-12-20T04:00:50;2.33;;;0.80;;
54881;SDS011;40775;51.448;4.742;2023-12-20T04:03:17;5.28;;;1.05;;
54881;SDS011;40775;51.448;4.742;2023-12-20T04:05:44;2.28;;;0.77;;
54881;SDS011;40775;51.448;4.742;2023-12-20T04:08:11;3.38;;;1.00;;
54881;SDS011;40775;51.448;4.742;2023-12-20T04:10:38;4.00;;;1.25;;
54881;SDS011;40775;51.448;4.742;2023-12-20T04:13:05;1.20;;;0.50;;
54881;SDS011;40775;51.448;4.742;2023-12-20T04:15:32;2.97;;;1.05;;
54881;SDS011;40775;51.448;4.742;2023-12-20T04:17:59;5.10;;;0.70;;
54881;SDS011;40775;51.448;4.742;2023-12-20T04:20:26;2.10;;;0.70;;
54881;SDS011;40775;51.448;4.742;2023-12-20T04:22:54;2.55;;;1.05;;
54881;SDS011;40775;51.448;4.742;2023-12-20T04:25:20;6.18;;;1.00;;
54881;SDS011;40775;51.448;4.742;2023-12-20T04:27:48;5.78;;;1.20;;
54881;SDS011;40775;51.448;4.742;2023-12-20T04:30:15;4.30;;;0.90;;
54881;SDS011;40775;51.448;4.742;2023-12-20T04:32:42;3.67;;;0.80;;
54881;SDS011;40775;51.448;4.742;2023-12-20T04:35:09;2.78;;;0.90;;
54881;SDS011;40775;51.448;4.742;2023-12-20T04:37:36;4.15;;;1.23;;
54881;SDS011;40775;51.448;4.742;2023-12-20T04:40:03;4.70;;;1.13;;
54881;SDS011;40775;51.448;4.742;2023-12-20T04:42:32;1.50;;;0.50;;
54881;SDS011;40775;51.448;4.742;2023-12-20T04:44:59;4.63;;;1.10;;
54881;SDS011;40775;51.448;4.742;2023-12-20T04:47:26;3.55;;;1.02;;
54881;SDS011;40775;51.448;4.742;2023-12-20T04:49:53;1.92;;;0.60;;
54881;SDS011;40775;51.448;4.742;2023-12-20T04:52:20;1.70;;;0.70;;
54881;SDS011;40775;51.448;4.742;2023-12-20T04:54:48;4.68;;;1.05;;
54881;SDS011;40775;51.448;4.742;2023-12-20T04:57:15;3.42;;;0.73;;
54881;SDS011;40775;51.448;4.742;2023-12-20T04:59:42;2.28;;;0.88;;
54881;SDS011;40775;51.448;4.742;2023-12-20T05:02:09;2.60;;;0.63;;
54881;SDS011;40775;51.448;4.742;2023-12-20T05:04:36;5.47;;;0.80;;
54881;SDS011;40775;51.448;4.742;2023-12-20T05:07:03;2.75;;;0.95;;
54881;SDS011;40775;51.448;4.742;2023-12-20T05:09:31;3.33;;;0.93;;
54881;SDS011;40775;51.448;4.742;2023-12-20T05:11:59;1.42;;;0.52;;
54881;SDS011;40775;51.448;4.742;2023-12-20T05:14:26;4.40;;;0.75;;
54881;SDS011;40775;51.448;4.742;2023-12-20T05:16:53;2.05;;;0.82;;
54881;SDS011;40775;51.448;4.742;2023-12-20T05:19:20;5.72;;;0.70;;
54881;SDS011;40775;51.448;4.742;2023-12-20T05:21:48;2.58;;;0.70;;
54881;SDS011;40775;51.448;4.742;2023-12-20T05:24:15;3.10;;;0.88;;
54881;SDS011;40775;51.448;4.742;2023-12-20T05:26:42;2.17;;;0.60;;
54881;SDS011;40775;51.448;4.742;2023-12-20T05:29:09;3.05;;;0.95;;
54881;SDS011;40775;51.448;4.742;2023-12-20T05:31:36;4.68;;;0.93;;
54881;SDS011;40775;51.448;4.742;2023-12-20T05:34:04;5.88;;;1.05;;
54881;SDS011;40775;51.448;4.742;2023-12-20T05:36:31;2.90;;;0.70;;
54881;SDS011;40775;51.448;4.742;2023-12-20T05:38:58;2.65;;;0.90;;
54881;SDS011;40775;51.448;4.742;2023-12-20T05:41:25;5.45;;;1.15;;
54881;SDS011;40775;51.448;4.742;2023-12-20T05:43:52;3.05;;;0.82;;
54881;SDS011;40775;51.448;4.742;2023-12-20T05:46:19;2.35;;;1.23;;
54881;SDS011;40775;51.448;4.742;2023-12-20T05:48:48;2.05;;;0.75;;
54881;SDS011;40775;51.448;4.742;2023-12-20T05:51:15;5.68;;;1.08;;
54881;SDS011;40775;51.448;4.742;2023-12-20T05:53:42;2.95;;;0.70;;
54881;SDS011;40775;51.448;4.742;2023-12-20T05:56:10;4.88;;;1.10;;
54881;SDS011;40775;51.448;4.742;2023-12-20T05:58:38;1.70;;;0.73;;
54881;SDS011;40775;51.448;4.742;2023-12-20T06:01:06;4.85;;;1.00;;
54881;SDS011;40775;51.448;4.742;2023-12-20T06:03:35;2.55;;;0.95;;
54881;SDS011;40775;51.448;4.742;2023-12-20T06:06:06;6.03;;;1.02;;
54881;SDS011;40775;51.448;4.742;2023-12-20T06:08:42;4.13;;;1.38;;
54881;SDS011;40775;51.448;4.742;2023-12-20T06:11:10;6.72;;;1.38;;
54881;SDS011;40775;51.448;4.742;2023-12-20T06:13:37;4.70;;;1.02;;
54881;SDS011;40775;51.448;4.742;2023-12-20T06:16:05;2.97;;;1.23;;
54881;SDS011;40775;51.448;4.742;2023-12-20T06:18:33;3.58;;;1.13;;
54881;SDS011;40775;51.448;4.742;2023-12-20T06:21:01;2.67;;;0.98;;
54881;SDS011;40775;51.448;4.742;2023-12-20T06:23:28;2.65;;;0.52;;
54881;SDS011;40775;51.448;4.742;2023-12-20T06:25:55;1.92;;;0.77;;
54881;SDS011;40775;51.448;4.742;2023-12-20T06:28:22;4.78;;;1.30;;
54881;SDS011;40775;51.448;4.742;2023-12-20T06:30:50;3.83;;;1.00;;
54881;SDS011;40775;51.448;4.742;2023-12-20T06:33:18;3.40;;;0.73;;
54881;SDS011;40775;51.448;4.742;2023-12-20T06:35:48;2.92;;;1.05;;
54881;SDS011;40775;51.448;4.742;2023-12-20T06:38:15;6.00;;;1.30;;
54881;SDS011;40775;51.448;4.742;2023-12-20T06:40:44;3.60;;;1.02;;
54881;SDS011;40775;51.448;4.742;2023-12-20T06:43:12;4.40;;;1.08;;
54881;SDS011;40775;51.448;4.742;2023-12-20T06:45:57;15.88;;;2.88;;
54881;SDS011;40775;51.448;4.742;2023-12-20T06:48:26;7.80;;;2.13;;
54881;SDS011;40775;51.448;4.742;2023-12-20T06:50:53;4.70;;;1.30;;
54881;SDS011;40775;51.448;4.742;2023-12-20T06:53:20;7.57;;;1.73;;
54881;SDS011;40775;51.448;4.742;2023-12-20T06:55:47;3.17;;;0.90;;
54881;SDS011;40775;51.448;4.742;2023-12-20T06:58:14;6.07;;;1.23;;
54881;SDS011;40775;51.448;4.742;2023-12-20T07:00:42;5.60;;;1.42;;
54881;SDS011;40775;51.448;4.742;2023-12-20T07:03:10;3.58;;;1.15;;
54881;SDS011;40775;51.448;4.742;2023-12-20T07:05:37;1.50;;;0.70;;
54881;SDS011;40775;51.448;4.742;2023-12-20T07:08:05;5.35;;;0.75;;
54881;SDS011;40775;51.448;4.742;2023-12-20T07:10:33;2.63;;;0.63;;
54881;SDS011;40775;51.448;4.742;2023-12-20T07:13:00;3.13;;;1.33;;
54881;SDS011;40775;51.448;4.742;2023-12-20T07:15:27;3.08;;;0.60;;
54881;SDS011;40775;51.448;4.742;2023-12-20T07:17:55;3.47;;;0.60;;
54881;SDS011;40775;51.448;4.742;2023-12-20T07:20:22;2.38;;;0.60;;
54881;SDS011;40775;51.448;4.742;2023-12-20T07:22:50;0.80;;;0.50;;
54881;SDS011;40775;51.448;4.742;2023-12-20T07:25:17;4.28;;;1.30;;
54881;SDS011;40775;51.448;4.742;2023-12-20T07:27:44;1.52;;;0.75;;
54881;SDS011;40775;51.448;4.742;2023-12-20T07:30:17;1.38;;;0.52;;
54881;SDS011;40775;51.448;4.742;2023-12-20T07:32:44;1.70;;;0.70;;
54881;SDS011;40775;51.448;4.742;2023-12-20T07:35:20;1.58;;;0.52;;
54881;SDS011;40775;51.448;4.742;2023-12-20T07:37:47;3.38;;;0.90;;
54881;SDS011;40775;51.448;4.742;2023-12-20T07:40:14;1.35;;;0.75;;
54881;SDS011;40775;51.448;4.742;2023-12-20T07:42:43;0.80;;;0.50;;
54881;SDS011;40775;51.448;4.742;2023-12-20T07:45:10;2.58;;;1.02;;
54881;SDS011;40775;51.448;4.742;2023-12-20T07:47:38;2.80;;;1.08;;
54881;SDS011;40775;51.448;4.742;2023-12-20T07:50:05;3.08;;;1.17;;
54881;SDS011;40775;51.448;4.742;2023-12-20T07:52:32;2.10;;;0.95;;
54881;SDS011;40775;51.448;4.742;2023-12-20T07:54:59;2.90;;;1.33;;
54881;SDS011;40775;51.448;4.742;2023-12-20T07:57:28;4.07;;;1.20;;
54881;SDS011;40775;51.448;4.742;2023-12-20T07:59:56;2.85;;;1.23;;
54881;SDS011;40775;51.448;4.742;2023-12-20T08:02:23;4.00;;;0.88;;
54881;SDS011;40775;51.448;4.742;2023-12-20T08:04:50;6.43;;;1.58;;
54881;SDS011;40775;51.448;4.742;2023-12-20T08:07:17;5.53;;;1.20;;
54881;SDS011;40775;51.448;4.742;2023-12-20T08:09:45;4.60;;;1.13;;
54881;SDS011;40775;51.448;4.742;2023-12-20T08:12:13;3.22;;;1.33;;
54881;SDS011;40775;51.448;4.742;2023-12-20T08:14:40;2.55;;;1.08;;
54881;SDS011;40775;51.448;4.742;2023-12-20T08:17:07;4.47;;;1.40;;
54881;SDS011;40775;51.448;4.742;2023-12-20T08:19:33;5.28;;;1.73;;
54881;SDS011;40775;51.448;4.742;2023-12-20T08:22:01;4.25;;;1.42;;
54881;SDS011;40775;51.448;4.742;2023-12-20T08:24:29;4.82;;;1.90;;
54881;SDS011;40775;51.448;4.742;2023-12-20T08:26:56;3.70;;;1.40;;
54881;SDS011;40775;51.448;4.742;2023-12-20T08:29:23;8.00;;;1.33;;
54881;SDS011;40775;51.448;4.742;2023-12-20T08:31:53;2.60;;;1.08;;
54881;SDS011;40775;51.448;4.742;2023-12-20T08:34:22;6.60;;;1.63;;
54881;SDS011;40775;51.448;4.742;2023-12-20T08:36:53;5.95;;;1.27;;
54881;SDS011;40775;51.448;4.742;2023-12-20T08:39:20;3.92;;;1.23;;
54881;SDS011;40775;51.448;4.742;2023-12-20T08:41:47;2.35;;;1.02;;
54881;SDS011;40775;51.448;4.742;2023-12-20T08:44:14;3.13;;;1.00;;
54881;SDS011;40775;51.448;4.742;2023-12-20T08:46:41;1.10;;;0.45;;
54881;SDS011;40775;51.448;4.742;2023-12-20T08:49:09;5.82;;;1.20;;
54881;SDS011;40775;51.448;4.742;2023-12-20T08:51:36;4.05;;;1.38;;
54881;SDS011;40775;51.448;4.742;2023-12-20T08:54:07;5.60;;;1.10;;
54881;SDS011;40775;51.448;4.742;2023-12-20T08:56:34;2.22;;;0.98;;
54881;SDS011;40775;51.448;4.742;2023-12-20T08:59:01;8.93;;;1.48;;
54881;SDS011;40775;51.448;4.742;2023-12-20T09:01:28;5.28;;;1.23;;
54881;SDS011;40775;51.448;4.742;2023-12-20T09:03:56;3.47;;;1.50;;
54881;SDS011;40775;51.448;4.742;2023-12-20T09:06:23;5.28;;;1.75;;
54881;SDS011;40775;51.448;4.742;2023-12-20T09:08:51;5.47;;;1.80;;
54881;SDS011;40775;51.448;4.742;2023-12-20T09:11:18;7.55;;;2.00;;
54881;SDS011;40775;51.448;4.742;2023-12-20T09:13:45;4.95;;;0.93;;
54881;SDS011;40775;51.448;4.742;2023-12-20T09:16:12;4.70;;;1.30;;
54881;SDS011;40775;51.448;4.742;2023-12-20T09:18:42;3.88;;;1.05;;
54881;SDS011;40775;51.448;4.742;2023-12-20T09:21:09;4.60;;;1.50;;
54881;SDS011;40775;51.448;4.742;2023-12-20T09:23:36;2.38;;;1.10;;
54881;SDS011;40775;51.448;4.742;2023-12-20T09:26:03;3.97;;;1.38;;
54881;SDS011;40775;51.448;4.742;2023-12-20T09:28:30;3.97;;;1.05;;
54881;SDS011;40775;51.448;4.742;2023-12-20T09:31:03;3.10;;;0.98;;
54881;SDS011;40775;51.448;4.742;2023-12-20T09:33:32;6.93;;;1.35;;
54881;SDS011;40775;51.448;4.742;2023-12-20T09:35:59;5.10;;;1.40;;
54881;SDS011;40775;51.448;4.742;2023-12-20T09:38:27;4.68;;;1.02;;
54881;SDS011;40775;51.448;4.742;2023-12-20T09:40:54;6.93;;;1.90;;
54881;SDS011;40775;51.448;4.742;2023-12-20T09:43:23;7.80;;;2.33;;
54881;SDS011;40775;51.448;4.742;2023-12-20T09:45:56;3.75;;;1.30;;
54881;SDS011;40775;51.448;4.742;2023-12-20T09:48:28;3.58;;;1.20;;
54881;SDS011;40775;51.448;4.742;2023-12-20T09:50:56;3.80;;;1.27;;
54881;SDS011;40775;51.448;4.742;2023-12-20T09:53:23;6.63;;;1.92;;
54881;SDS011;40775;51.448;4.742;2023-12-20T09:55:58;2.70;;;1.13;;
54881;SDS011;40775;51.448;4.742;2023-12-20T09:58:28;6.63;;;1.10;;
54881;SDS011;40775;51.448;4.742;2023-12-20T10:00:55;4.70;;;1.42;;
54881;SDS011;40775;51.448;4.742;2023-12-20T10:03:24;7.57;;;1.58;;
54881;SDS011;40775;51.448;4.742;2023-12-20T10:05:56;3.53;;;0.90;;
54881;SDS011;40775;51.448;4.742;2023-12-20T10:08:24;4.30;;;1.60;;
54881;SDS011;40775;51.448;4.742;2023-12-20T10:10:51;6.80;;;1.45;;
54881;SDS011;40775;51.448;4.742;2023-12-20T10:13:19;3.83;;;1.10;;
54881;SDS011;40775;51.448;4.742;2023-12-20T10:15:46;6.90;;;2.20;;
54881;SDS011;40775;51.448;4.742;2023-12-20T10:18:13;5.75;;;1.85;;
54881;SDS011;40775;51.448;4.742;2023-12-20T10:20:41;9.38;;;2.13;;
54881;SDS011;40775;51.448;4.742;2023-12-20T10:23:10;5.97;;;2.13;;
54881;SDS011;40775;51.448;4.742;2023-12-20T10:25:37;12.00;;;2.97;;
54881;SDS011;40775;51.448;4.742;2023-12-20T10:28:11;9.45;;;2.80;;
54881;SDS011;40775;51.448;4.742;2023-12-20T10:30:45;11.02;;;3.03;;
54881;SDS011;40775;51.448;4.742;2023-12-20T10:33:12;5.15;;;2.08;;
54881;SDS011;40775;51.448;4.742;2023-12-20T10:35:40;6.05;;;2.05;;
54881;SDS011;40775;51.448;4.742;2023-12-20T10:38:12;5.63;;;2.08;;
54881;SDS011;40775;51.448;4.742;2023-12-20T10:40:42;5.07;;;1.80;;
54881;SDS011;40775;51.448;4.742;2023-12-20T10:43:11;10.82;;;3.03;;
54881;SDS011;40775;51.448;4.742;2023-12-20T10:45:40;11.48;;;2.28;;
54881;SDS011;40775;51.448;4.742;2023-12-20T10:48:10;7.13;;;2.17;;
54881;SDS011;40775;51.448;4.742;2023-12-20T10:50:40;8.98;;;2.53;;
54881;SDS011;40775;51.448;4.742;2023-12-20T10:53:08;5.88;;;1.67;;
54881;SDS011;40775;51.448;4.742;2023-12-20T10:55:35;10.90;;;2.92;;
54881;SDS011;40775;51.448;4.742;2023-12-20T10:58:06;9.10;;;2.35;;
54881;SDS011;40775;51.448;4.742;2023-12-20T11:00:43;5.13;;;1.13;;
54881;SDS011;40775;51.448;4.742;2023-12-20T11:03:12;6.88;;;1.45;;
54881;SDS011;40775;51.448;4.742;2023-12-20T11:08:33;3.50;;;1.83;;
54881;SDS011;40775;51.448;4.742;2023-12-20T11:14:29;4.55;;;1.90;;
54881;SDS011;40775;51.448;4.742;2023-12-20T11:17:10;7.35;;;1.42;;
54881;SDS011;40775;51.448;4.742;2023-12-20T11:20:03;4.72;;;1.48;;
54881;SDS011;40775;51.448;4.742;2023-12-20T11:22:34;3.78;;;1.40;;
54881;SDS011;40775;51.448;4.742;2023-12-20T11:25:07;2.83;;;1.27;;
54881;SDS011;40775;51.448;4.742;2023-12-20T11:27:40;4.03;;;1.30;;
54881;SDS011;40775;51.448;4.742;2023-12-20T11:30:14;2.30;;;1.00;;
54881;SDS011;40775;51.448;4.742;2023-12-20T11:32:43;9.38;;;1.88;;
54881;SDS011;40775;51.448;4.742;2023-12-20T11:37:40;4.97;;;1.23;;
54881;SDS011;40775;51.448;4.742;2023-12-20T11:40:12;3.63;;;0.90;;
54881;SDS011;40775;51.448;4.742;2023-12-20T11:42:44;5.47;;;1.63;;
54881;SDS011;40775;51.448;4.742;2023-12-20T11:45:15;1.48;;;0.60;;
54881;SDS011;40775;51.448;4.742;2023-12-20T11:47:48;3.38;;;1.20;;
54881;SDS011;40775;51.448;4.742;2023-12-20T11:50:18;4.20;;;1.50;;
54881;SDS011;40775;51.448;4.742;2023-12-20T11:52:46;2.95;;;1.17;;
54881;SDS011;40775;51.448;4.742;2023-12-20T11:55:14;2.72;;;0.95;;
54881;SDS011;40775;51.448;4.742;2023-12-20T11:57:42;3.22;;;0.82;;
54881;SDS011;40775;51.448;4.742;2023-12-20T12:00:12;5.55;;;1.20;;
54881;SDS011;40775;51.448;4.742;2023-12-20T12:02:40;2.67;;;1.30;;
54881;SDS011;40775;51.448;4.742;2023-12-20T12:05:10;9.05;;;1.55;;
54881;SDS011;40775;51.448;4.742;2023-12-20T12:07:37;4.40;;;0.90;;
54881;SDS011;40775;51.448;4.742;2023-12-20T12:10:04;6.03;;;1.17;;
54881;SDS011;40775;51.448;4.742;2023-12-20T12:12:32;3.88;;;1.17;;
54881;SDS011;40775;51.448;4.742;2023-12-20T12:15:00;5.00;;;2.13;;
54881;SDS011;40775;51.448;4.742;2023-12-20T12:17:29;8.63;;;2.30;;
54881;SDS011;40775;51.448;4.742;2023-12-20T12:20:04;4.50;;;1.33;;
54881;SDS011;40775;51.448;4.742;2023-12-20T12:22:32;3.72;;;1.10;;
54881;SDS011;40775;51.448;4.742;2023-12-20T12:25:09;3.10;;;0.93;;
54881;SDS011;40775;51.448;4.742;2023-12-20T12:27:41;5.07;;;1.40;;
54881;SDS011;40775;51.448;4.742;2023-12-20T12:30:09;3.90;;;1.40;;
54881;SDS011;40775;51.448;4.742;2023-12-20T12:32:39;9.43;;;2.22;;
54881;SDS011;40775;51.448;4.742;2023-12-20T12:35:07;8.40;;;2.42;;
54881;SDS011;40775;51.448;4.742;2023-12-20T12:37:37;6.43;;;1.60;;
54881;SDS011;40775;51.448;4.742;2023-12-20T12:40:07;5.97;;;2.25;;
54881;SDS011;40775;51.448;4.742;2023-12-20T12:42:41;6.90;;;1.52;;
54881;SDS011;40775;51.448;4.742;2023-12-20T12:45:11;7.65;;;2.28;;
54881;SDS011;40775;51.448;4.742;2023-12-20T12:47:38;7.20;;;1.45;;
54881;SDS011;40775;51.448;4.742;2023-12-20T12:50:06;4.10;;;1.60;;
54881;SDS011;40775;51.448;4.742;2023-12-20T12:52:33;8.25;;;2.58;;
54881;SDS011;40775;51.448;4.742;2023-12-20T12:55:04;3.75;;;1.45;;
54881;SDS011;40775;51.448;4.742;2023-12-20T12:57:32;6.55;;;1.65;;
54881;SDS011;40775;51.448;4.742;2023-12-20T13:00:00;5.72;;;1.80;;
54881;SDS011;40775;51.448;4.742;2023-12-20T13:02:29;5.47;;;2.40;;
54881;SDS011;40775;51.448;4.742;2023-12-20T13:04:57;9.23;;;1.83;;
54881;SDS011;40775;51.448;4.742;2023-12-20T13:07:24;5.13;;;2.08;;
54881;SDS011;40775;51.448;4.742;2023-12-20T13:09:51;7.70;;;2.30;;
54881;SDS011;40775;51.448;4.742;2023-12-20T13:12:18;7.65;;;2.42;;
54881;SDS011;40775;51.448;4.742;2023-12-20T13:14:45;7.95;;;2.35;;
54881;SDS011;40775;51.448;4.742;2023-12-20T13:17:12;10.73;;;2.72;;
54881;SDS011;40775;51.448;4.742;2023-12-20T13:19:39;9.07;;;2.92;;
54881;SDS011;40775;51.448;4.742;2023-12-20T13:22:07;7.03;;;2.10;;
54881;SDS011;40775;51.448;4.742;2023-12-20T13:24:34;4.90;;;2.05;;
54881;SDS011;40775;51.448;4.742;2023-12-20T13:27:01;5.97;;;1.52;;
54881;SDS011;40775;51.448;4.742;2023-12-20T13:29:28;7.32;;;1.30;;
54881;SDS011;40775;51.448;4.742;2023-12-20T13:31:55;12.13;;;1.52;;
54881;SDS011;40775;51.448;4.742;2023-12-20T13:34:23;5.55;;;1.90;;
54881;SDS011;40775;51.448;4.742;2023-12-20T13:36:51;8.18;;;2.08;;
54881;SDS011;40775;51.448;4.742;2023-12-20T13:39:18;8.45;;;2.20;;
54881;SDS011;40775;51.448;4.742;2023-12-20T13:41:45;4.75;;;1.30;;
54881;SDS011;40775;51.448;4.742;2023-12-20T13:44:12;12.20;;;3.40;;
54881;SDS011;40775;51.448;4.742;2023-12-20T13:46:40;7.18;;;2.40;;
54881;SDS011;40775;51.448;4.742;2023-12-20T13:49:08;5.43;;;1.33;;
54881;SDS011;40775;51.448;4.742;2023-12-20T13:51:35;9.00;;;1.98;;
54881;SDS011;40775;51.448;4.742;2023-12-20T13:54:02;12.93;;;2.47;;
54881;SDS011;40775;51.448;4.742;2023-12-20T13:56:29;8.65;;;3.03;;
54881;SDS011;40775;51.448;4.742;2023-12-20T13:58:57;5.13;;;2.03;;
54881;SDS011;40775;51.448;4.742;2023-12-20T14:01:24;4.50;;;1.50;;
54881;SDS011;40775;51.448;4.742;2023-12-20T14:03:52;8.27;;;1.20;;
54881;SDS011;40775;51.448;4.742;2023-12-20T14:06:19;7.82;;;2.03;;
54881;SDS011;40775;51.448;4.742;2023-12-20T14:08:46;13.38;;;2.90;;
54881;SDS011;40775;51.448;4.742;2023-12-20T14:11:14;7.93;;;1.50;;
54881;SDS011;40775;51.448;4.742;2023-12-20T14:13:42;6.60;;;1.55;;
54881;SDS011;40775;51.448;4.742;2023-12-20T14:16:09;9.00;;;1.83;;
54881;SDS011;40775;51.448;4.742;2023-12-20T14:18:37;6.07;;;2.13;;
54881;SDS011;40775;51.448;4.742;2023-12-20T14:21:06;9.98;;;2.25;;
54881;SDS011;40775;51.448;4.742;2023-12-20T14:23:33;9.95;;;2.63;;
54881;SDS011;40775;51.448;4.742;2023-12-20T14:26:00;3.50;;;1.00;;
54881;SDS011;40775;51.448;4.742;2023-12-20T14:28:28;4.32;;;1.52;;
54881;SDS011;40775;51.448;4.742;2023-12-20T14:30:55;4.65;;;1.67;;
54881;SDS011;40775;51.448;4.742;2023-12-20T14:33:23;6.00;;;1.80;;
54881;SDS011;40775;51.448;4.742;2023-12-20T14:35:50;8.88;;;2.50;;
54881;SDS011;40775;51.448;4.742;2023-12-20T14:38:17;5.57;;;2.38;;
54881;SDS011;40775;51.448;4.742;2023-12-20T14:40:45;6.60;;;2.05;;
54881;SDS011;40775;51.448;4.742;2023-12-20T14:43:12;8.23;;;2.00;;
54881;SDS011;40775;51.448;4.742;2023-12-20T14:45:39;8.80;;;2.42;;
54881;SDS011;40775;51.448;4.742;2023-12-20T14:48:06;6.30;;;2.40;;
54881;SDS011;40775;51.448;4.742;2023-12-20T14:50:34;5.15;;;1.80;;
54881;SDS011;40775;51.448;4.742;2023-12-20T14:53:02;8.23;;;2.08;;
54881;SDS011;40775;51.448;4.742;2023-12-20T14:55:30;4.50;;;1.63;;
54881;SDS011;40775;51.448;4.742;2023-12-20T14:57:57;6.15;;;1.63;;
54881;SDS011;40775;51.448;4.742;2023-12-20T15:00:24;4.97;;;1.80;;
54881;SDS011;40775;51.448;4.742;2023-12-20T15:02:51;8.57;;;1.90;;